sensor_id;sensor_type;location;lat;lon;timestamp;P1;durP1;ratioP1;P2;durP2;ratioP2
13255;SDS011;37913;48.370;10.930;2022-08-21T00:01:34;111.78;;;49.95;;
13255;SDS011;37913;48.370;10.930;2022-08-21T00:04:05;97.55;;;44.85;;
13255;SDS011;37913;48.370;10.930;2022-08-21T00:09:13;98.35;;;45.97;;
13255;SDS011;37913;48.370;10.930;2022-08-21T00:11:40;106.78;;;46.88;;
13255;SDS011;37913;48.370;10.930;2022-08-21T00:14:08;101.95;;;48.92;;
13255;SDS011;37913;48.370;10.930;2022-08-21T00:16:35;102.63;;;45.22;;
13255;SDS011;37913;48.370;10.930;2022-08-21T00:19:05;102.22;;;45.30;;
13255;SDS011;37913;48.370;10.930;2022-08-21T00:21:33;104.90;;;46.33;;
13255;SDS011;37913;48.370;10.930;2022-08-21T00:24:01;96.57;;;45.60;;
13255;SDS011;37913;48.370;10.930;2022-08-21T00:26:28;98.80;;;44.55;;
13255;SDS011;37913;48.370;10.930;2022-08-21T00:28:55;95.47;;;43.42;;
13255;SDS011;37913;48.370;10.930;2022-08-21T00:31:22;90.30;;;42.05;;
13255;SDS011;37913;48.370;10.930;2022-08-21T00:33:49;102.63;;;43.53;;
13255;SDS011;37913;48.370;10.930;2022-08-21T00:36:18;87.75;;;43.75;;
13255;SDS011;37913;48.370;10.930;2022-08-21T00:38:46;94.65;;;43.85;;
13255;SDS011;37913;48.370;10.930;2022-08-21T00:41:12;97.65;;;44.35;;
13255;SDS011;37913;48.370;10.930;2022-08-21T00:46:19;91.03;;;41.97;;
13255;SDS011;37913;48.370;10.930;2022-08-21T00:48:48;90.07;;;41.40;;
13255;SDS011;37913;48.370;10.930;2022-08-21T00:51:17;93.68;;;42.17;;
13255;SDS011;37913;48.370;10.930;2022-08-21T00:53:51;108.53;;;44.78;;
13255;SDS011;37913;48.370;10.930;2022-08-21T00:56:21;102.07;;;44.03;;
13255;SDS011;37913;48.370;10.930;2022-08-21T00:58:50;102.88;;;44.25;;
13255;SDS011;37913;48.370;10.930;2022-08-21T01:01:18;97.18;;;45.47;;
13255;SDS011;37913;48.370;10.930;2022-08-21T01:03:46;104.45;;;48.83;;
13255;SDS011;37913;48.370;10.930;2022-08-21T01:06:13;99.18;;;45.25;;
13255;SDS011;37913;48.370;10.930;2022-08-21T01:08:42;99.85;;;43.33;;
13255;SDS011;37913;48.370;10.930;2022-08-21T01:11:10;100.57;;;44.13;;
13255;SDS011;37913;48.370;10.930;2022-08-21T01:13:37;98.13;;;42.92;;
13255;SDS011;37913;48.370;10.930;2022-08-21T01:16:10;92.85;;;41.88;;
13255;SDS011;37913;48.370;10.930;2022-08-21T01:18:40;91.13;;;41.45;;
13255;SDS011;37913;48.370;10.930;2022-08-21T01:21:10;95.10;;;42.05;;
13255;SDS011;37913;48.370;10.930;2022-08-21T01:23:39;96.45;;;43.17;;
13255;SDS011;37913;48.370;10.930;2022-08-21T01:26:10;92.40;;;42.92;;
13255;SDS011;37913;48.370;10.930;2022-08-21T01:28:40;88.75;;;40.92;;
13255;SDS011;37913;48.370;10.930;2022-08-21T01:31:12;107.80;;;44.38;;
13255;SDS011;37913;48.370;10.930;2022-08-21T01:33:41;98.38;;;42.60;;
13255;SDS011;37913;48.370;10.930;2022-08-21T01:36:09;100.80;;;43.47;;
13255;SDS011;37913;48.370;10.930;2022-08-21T01:38:36;85.55;;;40.08;;
13255;SDS011;37913;48.370;10.930;2022-08-21T01:41:03;88.65;;;41.15;;
13255;SDS011;37913;48.370;10.930;2022-08-21T01:43:30;93.40;;;42.10;;
13255;SDS011;37913;48.370;10.930;2022-08-21T01:45:57;98.30;;;43.03;;
13255;SDS011;37913;48.370;10.930;2022-08-21T01:48:24;92.78;;;41.38;;
13255;SDS011;37913;48.370;10.930;2022-08-21T01:50:51;96.22;;;42.15;;
13255;SDS011;37913;48.370;10.930;2022-08-21T01:53:19;95.97;;;41.95;;
13255;SDS011;37913;48.370;10.930;2022-08-21T01:55:46;99.18;;;43.13;;
13255;SDS011;37913;48.370;10.930;2022-08-21T01:58:13;100.20;;;43.05;;
13255;SDS011;37913;48.370;10.930;2022-08-21T02:00:40;107.60;;;44.90;;
13255;SDS011;37913;48.370;10.930;2022-08-21T02:03:08;104.03;;;44.60;;
13255;SDS011;37913;48.370;10.930;2022-08-21T02:05:34;104.60;;;43.28;;
13255;SDS011;37913;48.370;10.930;2022-08-21T02:08:02;100.18;;;44.10;;
13255;SDS011;37913;48.370;10.930;2022-08-21T02:10:33;116.93;;;46.85;;
13255;SDS011;37913;48.370;10.930;2022-08-21T02:13:00;117.15;;;45.97;;
13255;SDS011;37913;48.370;10.930;2022-08-21T02:15:27;98.78;;;43.15;;
13255;SDS011;37913;48.370;10.930;2022-08-21T02:17:57;93.78;;;42.33;;
13255;SDS011;37913;48.370;10.930;2022-08-21T02:20:26;95.07;;;42.00;;
13255;SDS011;37913;48.370;10.930;2022-08-21T02:22:54;98.10;;;43.00;;
13255;SDS011;37913;48.370;10.930;2022-08-21T02:25:22;96.53;;;42.17;;
13255;SDS011;37913;48.370;10.930;2022-08-21T02:27:51;100.10;;;42.85;;
13255;SDS011;37913;48.370;10.930;2022-08-21T02:30:20;101.00;;;43.65;;
13255;SDS011;37913;48.370;10.930;2022-08-21T02:32:49;91.03;;;40.88;;
13255;SDS011;37913;48.370;10.930;2022-08-21T02:35:16;92.55;;;42.35;;
13255;SDS011;37913;48.370;10.930;2022-08-21T02:37:44;94.72;;;41.97;;
13255;SDS011;37913;48.370;10.930;2022-08-21T02:40:14;91.40;;;41.08;;
13255;SDS011;37913;48.370;10.930;2022-08-21T02:42:42;96.90;;;41.88;;
13255;SDS011;37913;48.370;10.930;2022-08-21T02:45:11;95.05;;;42.00;;
13255;SDS011;37913;48.370;10.930;2022-08-21T02:47:39;90.60;;;41.08;;
13255;SDS011;37913;48.370;10.930;2022-08-21T02:50:07;88.30;;;41.08;;
13255;SDS011;37913;48.370;10.930;2022-08-21T02:52:34;92.70;;;41.63;;
13255;SDS011;37913;48.370;10.930;2022-08-21T02:55:02;91.47;;;41.40;;
13255;SDS011;37913;48.370;10.930;2022-08-21T02:57:29;99.90;;;43.72;;
13255;SDS011;37913;48.370;10.930;2022-08-21T02:59:57;89.82;;;40.67;;
13255;SDS011;37913;48.370;10.930;2022-08-21T03:02:26;110.05;;;43.53;;
13255;SDS011;37913;48.370;10.930;2022-08-21T03:04:53;138.07;;;47.38;;
13255;SDS011;37913;48.370;10.930;2022-08-21T03:07:20;112.95;;;45.45;;
13255;SDS011;37913;48.370;10.930;2022-08-21T03:09:47;114.32;;;45.35;;
13255;SDS011;37913;48.370;10.930;2022-08-21T03:12:14;111.10;;;46.22;;
13255;SDS011;37913;48.370;10.930;2022-08-21T03:14:41;197.23;;;58.70;;
13255;SDS011;37913;48.370;10.930;2022-08-21T03:17:08;191.50;;;60.30;;
13255;SDS011;37913;48.370;10.930;2022-08-21T03:19:37;105.55;;;44.30;;
13255;SDS011;37913;48.370;10.930;2022-08-21T03:22:04;112.10;;;43.78;;
13255;SDS011;37913;48.370;10.930;2022-08-21T03:24:31;119.13;;;45.83;;
13255;SDS011;37913;48.370;10.930;2022-08-21T03:26:58;102.78;;;43.95;;
13255;SDS011;37913;48.370;10.930;2022-08-21T03:29:25;100.57;;;42.80;;
13255;SDS011;37913;48.370;10.930;2022-08-21T03:31:52;102.07;;;43.13;;
13255;SDS011;37913;48.370;10.930;2022-08-21T03:34:19;109.00;;;43.65;;
13255;SDS011;37913;48.370;10.930;2022-08-21T03:36:48;104.63;;;43.25;;
13255;SDS011;37913;48.370;10.930;2022-08-21T03:39:15;104.70;;;43.72;;
13255;SDS011;37913;48.370;10.930;2022-08-21T03:41:43;104.72;;;43.40;;
13255;SDS011;37913;48.370;10.930;2022-08-21T03:44:10;99.60;;;42.67;;
13255;SDS011;37913;48.370;10.930;2022-08-21T03:46:37;97.22;;;42.67;;
13255;SDS011;37913;48.370;10.930;2022-08-21T03:49:06;102.75;;;43.35;;
13255;SDS011;37913;48.370;10.930;2022-08-21T03:51:33;98.45;;;43.35;;
13255;SDS011;37913;48.370;10.930;2022-08-21T03:54:02;94.97;;;42.17;;
13255;SDS011;37913;48.370;10.930;2022-08-21T03:56:29;99.00;;;42.90;;
13255;SDS011;37913;48.370;10.930;2022-08-21T03:58:56;95.47;;;42.08;;
13255;SDS011;37913;48.370;10.930;2022-08-21T04:01:23;96.07;;;42.30;;
13255;SDS011;37913;48.370;10.930;2022-08-21T04:03:50;93.70;;;42.25;;
13255;SDS011;37913;48.370;10.930;2022-08-21T04:06:17;97.30;;;43.08;;
13255;SDS011;37913;48.370;10.930;2022-08-21T04:08:44;101.07;;;43.20;;
13255;SDS011;37913;48.370;10.930;2022-08-21T04:11:12;99.80;;;43.28;;
13255;SDS011;37913;48.370;10.930;2022-08-21T04:13:40;87.45;;;40.42;;
13255;SDS011;37913;48.370;10.930;2022-08-21T04:16:07;93.05;;;41.05;;
13255;SDS011;37913;48.370;10.930;2022-08-21T04:18:34;102.10;;;43.67;;
13255;SDS011;37913;48.370;10.930;2022-08-21T04:21:02;99.43;;;43.13;;
13255;SDS011;37913;48.370;10.930;2022-08-21T04:23:29;103.53;;;42.92;;
13255;SDS011;37913;48.370;10.930;2022-08-21T04:25:56;100.30;;;43.13;;
13255;SDS011;37913;48.370;10.930;2022-08-21T04:28:26;101.55;;;42.83;;
13255;SDS011;37913;48.370;10.930;2022-08-21T04:30:53;105.38;;;42.78;;
13255;SDS011;37913;48.370;10.930;2022-08-21T04:33:21;107.00;;;43.65;;
13255;SDS011;37913;48.370;10.930;2022-08-21T04:35:49;95.07;;;42.60;;
13255;SDS011;37913;48.370;10.930;2022-08-21T04:38:16;98.07;;;42.95;;
13255;SDS011;37913;48.370;10.930;2022-08-21T04:40:44;93.75;;;42.30;;
13255;SDS011;37913;48.370;10.930;2022-08-21T04:43:12;86.72;;;41.28;;
13255;SDS011;37913;48.370;10.930;2022-08-21T04:45:41;90.57;;;41.05;;
13255;SDS011;37913;48.370;10.930;2022-08-21T04:48:11;96.57;;;42.85;;
13255;SDS011;37913;48.370;10.930;2022-08-21T04:50:39;94.03;;;42.53;;
13255;SDS011;37913;48.370;10.930;2022-08-21T04:53:10;95.25;;;42.65;;
13255;SDS011;37913;48.370;10.930;2022-08-21T04:55:39;107.20;;;44.65;;
13255;SDS011;37913;48.370;10.930;2022-08-21T04:58:09;107.70;;;44.50;;
13255;SDS011;37913;48.370;10.930;2022-08-21T05:00:42;105.25;;;44.83;;
13255;SDS011;37913;48.370;10.930;2022-08-21T05:03:10;102.93;;;44.05;;
13255;SDS011;37913;48.370;10.930;2022-08-21T05:05:37;98.28;;;44.08;;
13255;SDS011;37913;48.370;10.930;2022-08-21T05:08:05;96.93;;;43.60;;
13255;SDS011;37913;48.370;10.930;2022-08-21T05:10:38;106.15;;;47.88;;
13255;SDS011;37913;48.370;10.930;2022-08-21T05:13:05;105.43;;;45.88;;
13255;SDS011;37913;48.370;10.930;2022-08-21T05:15:33;110.50;;;46.53;;
13255;SDS011;37913;48.370;10.930;2022-08-21T05:18:01;103.20;;;46.33;;
13255;SDS011;37913;48.370;10.930;2022-08-21T05:20:28;106.07;;;46.80;;
13255;SDS011;37913;48.370;10.930;2022-08-21T05:22:55;100.65;;;45.85;;
13255;SDS011;37913;48.370;10.930;2022-08-21T05:25:22;106.15;;;47.13;;
13255;SDS011;37913;48.370;10.930;2022-08-21T05:31:20;104.00;;;46.40;;
13255;SDS011;37913;48.370;10.930;2022-08-21T05:33:48;94.80;;;44.63;;
13255;SDS011;37913;48.370;10.930;2022-08-21T05:36:16;95.32;;;45.75;;
13255;SDS011;37913;48.370;10.930;2022-08-21T05:38:43;99.68;;;46.60;;
13255;SDS011;37913;48.370;10.930;2022-08-21T05:41:10;98.18;;;47.55;;
13255;SDS011;37913;48.370;10.930;2022-08-21T05:43:37;99.90;;;47.35;;
13255;SDS011;37913;48.370;10.930;2022-08-21T05:46:04;101.53;;;48.17;;
13255;SDS011;37913;48.370;10.930;2022-08-21T05:48:33;105.13;;;48.83;;
13255;SDS011;37913;48.370;10.930;2022-08-21T05:51:05;93.85;;;46.75;;
13255;SDS011;37913;48.370;10.930;2022-08-21T05:53:33;94.28;;;46.58;;
13255;SDS011;37913;48.370;10.930;2022-08-21T05:56:01;94.47;;;46.60;;
13255;SDS011;37913;48.370;10.930;2022-08-21T05:58:29;93.47;;;44.83;;
13255;SDS011;37913;48.370;10.930;2022-08-21T06:00:58;108.20;;;45.70;;
13255;SDS011;37913;48.370;10.930;2022-08-21T06:03:27;80.78;;;40.97;;
13255;SDS011;37913;48.370;10.930;2022-08-21T06:05:57;86.25;;;42.08;;
13255;SDS011;37913;48.370;10.930;2022-08-21T06:08:26;93.35;;;43.47;;
13255;SDS011;37913;48.370;10.930;2022-08-21T06:10:54;87.38;;;42.05;;
13255;SDS011;37913;48.370;10.930;2022-08-21T06:16:00;88.47;;;42.72;;
13255;SDS011;37913;48.370;10.930;2022-08-21T06:18:30;88.63;;;42.47;;
13255;SDS011;37913;48.370;10.930;2022-08-21T06:20:57;89.35;;;43.05;;
13255;SDS011;37913;48.370;10.930;2022-08-21T06:23:25;89.80;;;44.30;;
13255;SDS011;37913;48.370;10.930;2022-08-21T06:25:52;97.47;;;45.67;;
13255;SDS011;37913;48.370;10.930;2022-08-21T06:28:19;92.72;;;44.65;;
13255;SDS011;37913;48.370;10.930;2022-08-21T06:30:46;91.50;;;45.40;;
13255;SDS011;37913;48.370;10.930;2022-08-21T06:33:14;88.50;;;44.83;;
13255;SDS011;37913;48.370;10.930;2022-08-21T06:35:41;91.90;;;45.60;;
13255;SDS011;37913;48.370;10.930;2022-08-21T06:38:08;95.72;;;47.28;;
13255;SDS011;37913;48.370;10.930;2022-08-21T06:40:36;87.97;;;45.47;;
13255;SDS011;37913;48.370;10.930;2022-08-21T06:43:08;95.75;;;47.70;;
13255;SDS011;37913;48.370;10.930;2022-08-21T06:45:38;92.65;;;46.83;;
13255;SDS011;37913;48.370;10.930;2022-08-21T06:48:06;86.20;;;45.72;;
13255;SDS011;37913;48.370;10.930;2022-08-21T06:50:33;85.43;;;46.78;;
13255;SDS011;37913;48.370;10.930;2022-08-21T06:53:00;89.10;;;47.60;;
13255;SDS011;37913;48.370;10.930;2022-08-21T06:55:32;92.95;;;49.10;;
13255;SDS011;37913;48.370;10.930;2022-08-21T06:58:00;88.13;;;48.72;;
13255;SDS011;37913;48.370;10.930;2022-08-21T07:00:27;94.22;;;51.05;;
13255;SDS011;37913;48.370;10.930;2022-08-21T07:02:54;88.57;;;50.15;;
13255;SDS011;37913;48.370;10.930;2022-08-21T07:05:21;90.68;;;51.83;;
13255;SDS011;37913;48.370;10.930;2022-08-21T07:07:51;96.90;;;54.95;;
13255;SDS011;37913;48.370;10.930;2022-08-21T07:12:57;99.45;;;55.35;;
13255;SDS011;37913;48.370;10.930;2022-08-21T07:15:25;97.10;;;56.10;;
13255;SDS011;37913;48.370;10.930;2022-08-21T07:17:52;97.20;;;57.08;;
13255;SDS011;37913;48.370;10.930;2022-08-21T07:20:20;96.53;;;57.10;;
13255;SDS011;37913;48.370;10.930;2022-08-21T07:22:47;102.78;;;57.92;;
13255;SDS011;37913;48.370;10.930;2022-08-21T07:25:14;102.93;;;59.50;;
13255;SDS011;37913;48.370;10.930;2022-08-21T07:27:41;97.68;;;58.90;;
13255;SDS011;37913;48.370;10.930;2022-08-21T07:30:08;96.07;;;60.03;;
13255;SDS011;37913;48.370;10.930;2022-08-21T07:32:41;101.28;;;61.58;;
13255;SDS011;37913;48.370;10.930;2022-08-21T07:35:09;94.63;;;60.60;;
13255;SDS011;37913;48.370;10.930;2022-08-21T07:37:36;110.45;;;66.18;;
13255;SDS011;37913;48.370;10.930;2022-08-21T07:40:11;92.57;;;63.38;;
13255;SDS011;37913;48.370;10.930;2022-08-21T07:42:40;89.35;;;64.70;;
13255;SDS011;37913;48.370;10.930;2022-08-21T07:45:08;90.15;;;70.60;;
13255;SDS011;37913;48.370;10.930;2022-08-21T07:47:36;90.85;;;72.47;;
13255;SDS011;37913;48.370;10.930;2022-08-21T07:50:06;91.97;;;73.93;;
13255;SDS011;37913;48.370;10.930;2022-08-21T07:55:30;102.60;;;80.22;;
13255;SDS011;37913;48.370;10.930;2022-08-21T07:57:57;103.32;;;78.97;;
13255;SDS011;37913;48.370;10.930;2022-08-21T08:00:25;106.13;;;80.47;;
13255;SDS011;37913;48.370;10.930;2022-08-21T08:02:53;113.72;;;80.13;;
13255;SDS011;37913;48.370;10.930;2022-08-21T08:05:23;106.32;;;81.07;;
13255;SDS011;37913;48.370;10.930;2022-08-21T08:07:52;108.50;;;85.78;;
13255;SDS011;37913;48.370;10.930;2022-08-21T08:10:21;114.88;;;87.60;;
13255;SDS011;37913;48.370;10.930;2022-08-21T08:12:49;108.97;;;87.32;;
13255;SDS011;37913;48.370;10.930;2022-08-21T08:15:18;111.00;;;89.43;;
13255;SDS011;37913;48.370;10.930;2022-08-21T08:17:47;114.55;;;92.43;;
13255;SDS011;37913;48.370;10.930;2022-08-21T08:20:14;111.22;;;95.00;;
13255;SDS011;37913;48.370;10.930;2022-08-21T08:22:44;110.07;;;94.28;;
13255;SDS011;37913;48.370;10.930;2022-08-21T08:25:12;115.68;;;97.82;;
13255;SDS011;37913;48.370;10.930;2022-08-21T08:27:40;114.78;;;99.47;;
13255;SDS011;37913;48.370;10.930;2022-08-21T08:30:08;122.53;;;102.28;;
13255;SDS011;37913;48.370;10.930;2022-08-21T08:32:37;114.47;;;102.20;;
13255;SDS011;37913;48.370;10.930;2022-08-21T08:35:05;118.45;;;106.13;;
13255;SDS011;37913;48.370;10.930;2022-08-21T08:37:33;119.00;;;106.43;;
13255;SDS011;37913;48.370;10.930;2022-08-21T08:40:04;117.82;;;105.78;;
13255;SDS011;37913;48.370;10.930;2022-08-21T08:42:33;119.35;;;107.43;;
13255;SDS011;37913;48.370;10.930;2022-08-21T08:45:03;123.68;;;110.40;;
13255;SDS011;37913;48.370;10.930;2022-08-21T08:47:32;124.90;;;112.20;;
13255;SDS011;37913;48.370;10.930;2022-08-21T08:50:05;126.63;;;113.80;;
13255;SDS011;37913;48.370;10.930;2022-08-21T08:52:35;127.68;;;114.22;;
13255;SDS011;37913;48.370;10.930;2022-08-21T08:55:11;128.90;;;115.63;;
13255;SDS011;37913;48.370;10.930;2022-08-21T08:57:42;127.80;;;115.03;;
13255;SDS011;37913;48.370;10.930;2022-08-21T09:00:14;129.55;;;117.43;;
13255;SDS011;37913;48.370;10.930;2022-08-21T09:02:44;137.25;;;123.57;;
13255;SDS011;37913;48.370;10.930;2022-08-21T09:05:17;133.35;;;120.65;;
13255;SDS011;37913;48.370;10.930;2022-08-21T09:07:50;132.98;;;120.40;;
13255;SDS011;37913;48.370;10.930;2022-08-21T09:10:33;135.50;;;122.68;;
13255;SDS011;37913;48.370;10.930;2022-08-21T09:13:07;136.98;;;124.53;;
13255;SDS011;37913;48.370;10.930;2022-08-21T09:15:46;139.65;;;126.85;;
13255;SDS011;37913;48.370;10.930;2022-08-21T09:18:23;137.80;;;125.30;;
13255;SDS011;37913;48.370;10.930;2022-08-21T09:21:03;143.75;;;130.18;;
13255;SDS011;37913;48.370;10.930;2022-08-21T09:23:40;136.48;;;124.72;;
13255;SDS011;37913;48.370;10.930;2022-08-21T09:26:16;137.48;;;125.07;;
13255;SDS011;37913;48.370;10.930;2022-08-21T09:28:44;143.82;;;129.90;;
13255;SDS011;37913;48.370;10.930;2022-08-21T09:31:21;143.80;;;131.02;;
13255;SDS011;37913;48.370;10.930;2022-08-21T09:33:56;142.60;;;130.45;;
13255;SDS011;37913;48.370;10.930;2022-08-21T09:36:25;145.48;;;132.73;;
13255;SDS011;37913;48.370;10.930;2022-08-21T09:38:57;144.40;;;131.25;;
13255;SDS011;37913;48.370;10.930;2022-08-21T09:41:32;145.20;;;132.85;;
13255;SDS011;37913;48.370;10.930;2022-08-21T09:44:01;146.35;;;133.52;;
13255;SDS011;37913;48.370;10.930;2022-08-21T09:46:29;146.07;;;132.88;;
13255;SDS011;37913;48.370;10.930;2022-08-21T09:48:57;145.38;;;132.27;;
13255;SDS011;37913;48.370;10.930;2022-08-21T09:51:27;148.25;;;135.30;;
13255;SDS011;37913;48.370;10.930;2022-08-21T09:53:58;147.63;;;135.45;;
13255;SDS011;37913;48.370;10.930;2022-08-21T09:56:50;150.45;;;136.90;;
13255;SDS011;37913;48.370;10.930;2022-08-21T09:59:39;152.68;;;138.55;;
13255;SDS011;37913;48.370;10.930;2022-08-21T10:04:57;160.63;;;143.65;;
13255;SDS011;37913;48.370;10.930;2022-08-21T10:07:27;146.68;;;134.63;;
13255;SDS011;37913;48.370;10.930;2022-08-21T10:10:03;159.93;;;145.55;;
13255;SDS011;37913;48.370;10.930;2022-08-21T10:12:39;166.27;;;149.85;;
13255;SDS011;37913;48.370;10.930;2022-08-21T10:15:16;155.27;;;141.80;;
13255;SDS011;37913;48.370;10.930;2022-08-21T10:17:52;153.13;;;139.82;;
13255;SDS011;37913;48.370;10.930;2022-08-21T10:20:29;152.65;;;139.68;;
13255;SDS011;37913;48.370;10.930;2022-08-21T10:23:06;159.32;;;144.50;;
13255;SDS011;37913;48.370;10.930;2022-08-21T10:25:46;150.23;;;137.75;;
13255;SDS011;37913;48.370;10.930;2022-08-21T10:28:21;154.13;;;141.18;;
13255;SDS011;37913;48.370;10.930;2022-08-21T10:30:55;166.50;;;149.88;;
13255;SDS011;37913;48.370;10.930;2022-08-21T10:33:28;154.82;;;142.32;;
13255;SDS011;37913;48.370;10.930;2022-08-21T10:36:09;154.73;;;141.77;;
13255;SDS011;37913;48.370;10.930;2022-08-21T10:38:46;152.60;;;139.93;;
13255;SDS011;37913;48.370;10.930;2022-08-21T10:41:39;149.05;;;135.82;;
13255;SDS011;37913;48.370;10.930;2022-08-21T10:44:23;153.32;;;139.10;;
13255;SDS011;37913;48.370;10.930;2022-08-21T10:46:57;152.45;;;139.02;;
13255;SDS011;37913;48.370;10.930;2022-08-21T10:49:31;153.85;;;140.25;;
13255;SDS011;37913;48.370;10.930;2022-08-21T10:54:56;153.00;;;139.27;;
13255;SDS011;37913;48.370;10.930;2022-08-21T10:57:29;157.80;;;144.43;;
13255;SDS011;37913;48.370;10.930;2022-08-21T11:00:08;158.70;;;144.30;;
13255;SDS011;37913;48.370;10.930;2022-08-21T11:02:38;148.27;;;135.93;;
13255;SDS011;37913;48.370;10.930;2022-08-21T11:05:11;143.57;;;130.43;;
13255;SDS011;37913;48.370;10.930;2022-08-21T11:07:45;139.48;;;126.75;;
13255;SDS011;37913;48.370;10.930;2022-08-21T11:10:18;142.48;;;129.02;;
13255;SDS011;37913;48.370;10.930;2022-08-21T11:12:50;149.65;;;136.70;;
13255;SDS011;37913;48.370;10.930;2022-08-21T11:18:17;144.93;;;132.85;;
13255;SDS011;37913;48.370;10.930;2022-08-21T11:20:52;150.52;;;137.02;;
13255;SDS011;37913;48.370;10.930;2022-08-21T11:23:29;144.05;;;130.93;;
13255;SDS011;37913;48.370;10.930;2022-08-21T11:26:05;150.30;;;137.68;;
13255;SDS011;37913;48.370;10.930;2022-08-21T11:28:38;146.18;;;134.93;;
13255;SDS011;37913;48.370;10.930;2022-08-21T11:31:16;157.85;;;144.13;;
13255;SDS011;37913;48.370;10.930;2022-08-21T11:33:57;146.68;;;134.18;;
13255;SDS011;37913;48.370;10.930;2022-08-21T11:36:37;155.93;;;141.77;;
13255;SDS011;37913;48.370;10.930;2022-08-21T11:39:12;149.65;;;137.07;;
13255;SDS011;37913;48.370;10.930;2022-08-21T11:41:46;152.88;;;139.15;;
13255;SDS011;37913;48.370;10.930;2022-08-21T11:44:26;157.23;;;143.10;;
13255;SDS011;37913;48.370;10.930;2022-08-21T11:47:02;159.02;;;145.07;;
13255;SDS011;37913;48.370;10.930;2022-08-21T11:49:39;161.00;;;147.13;;
13255;SDS011;37913;48.370;10.930;2022-08-21T11:52:16;150.63;;;137.98;;
13255;SDS011;37913;48.370;10.930;2022-08-21T11:54:51;165.57;;;148.75;;
13255;SDS011;37913;48.370;10.930;2022-08-21T11:57:24;148.93;;;135.35;;
13255;SDS011;37913;48.370;10.930;2022-08-21T11:59:57;149.75;;;135.95;;
13255;SDS011;37913;48.370;10.930;2022-08-21T12:02:31;145.80;;;131.85;;
13255;SDS011;37913;48.370;10.930;2022-08-21T12:05:03;139.05;;;125.22;;
13255;SDS011;37913;48.370;10.930;2022-08-21T12:07:35;131.82;;;118.43;;
13255;SDS011;37913;48.370;10.930;2022-08-21T12:10:06;121.38;;;108.82;;
13255;SDS011;37913;48.370;10.930;2022-08-21T12:12:35;118.40;;;105.32;;
13255;SDS011;37913;48.370;10.930;2022-08-21T12:15:07;112.55;;;100.43;;
13255;SDS011;37913;48.370;10.930;2022-08-21T12:17:53;118.38;;;99.68;;
13255;SDS011;37913;48.370;10.930;2022-08-21T12:20:26;104.38;;;93.03;;
13255;SDS011;37913;48.370;10.930;2022-08-21T12:23:12;110.65;;;98.57;;
13255;SDS011;37913;48.370;10.930;2022-08-21T12:25:43;108.05;;;96.47;;
13255;SDS011;37913;48.370;10.930;2022-08-21T12:28:12;109.28;;;98.68;;
13255;SDS011;37913;48.370;10.930;2022-08-21T12:30:43;112.88;;;100.75;;
13255;SDS011;37913;48.370;10.930;2022-08-21T12:33:21;117.65;;;105.55;;
13255;SDS011;37913;48.370;10.930;2022-08-21T12:35:50;116.72;;;105.38;;
13255;SDS011;37913;48.370;10.930;2022-08-21T12:38:20;126.00;;;113.43;;
13255;SDS011;37913;48.370;10.930;2022-08-21T12:40:50;120.30;;;109.13;;
13255;SDS011;37913;48.370;10.930;2022-08-21T12:43:23;129.50;;;116.72;;
13255;SDS011;37913;48.370;10.930;2022-08-21T12:45:55;130.25;;;117.82;;
13255;SDS011;37913;48.370;10.930;2022-08-21T12:48:26;133.40;;;120.85;;
13255;SDS011;37913;48.370;10.930;2022-08-21T12:51:05;132.30;;;119.82;;
13255;SDS011;37913;48.370;10.930;2022-08-21T12:53:38;133.85;;;121.60;;
13255;SDS011;37913;48.370;10.930;2022-08-21T12:56:11;136.75;;;124.25;;
13255;SDS011;37913;48.370;10.930;2022-08-21T12:58:40;140.52;;;127.55;;
13255;SDS011;37913;48.370;10.930;2022-08-21T13:01:13;142.73;;;128.95;;
13255;SDS011;37913;48.370;10.930;2022-08-21T13:03:47;134.45;;;122.90;;
13255;SDS011;37913;48.370;10.930;2022-08-21T13:06:15;135.13;;;123.70;;
13255;SDS011;37913;48.370;10.930;2022-08-21T13:08:45;136.00;;;123.93;;
13255;SDS011;37913;48.370;10.930;2022-08-21T13:11:16;139.90;;;126.72;;
13255;SDS011;37913;48.370;10.930;2022-08-21T13:13:48;146.07;;;131.60;;
13255;SDS011;37913;48.370;10.930;2022-08-21T13:16:18;139.75;;;126.28;;
13255;SDS011;37913;48.370;10.930;2022-08-21T13:18:54;145.75;;;131.32;;
13255;SDS011;37913;48.370;10.930;2022-08-21T13:21:27;142.15;;;128.80;;
13255;SDS011;37913;48.370;10.930;2022-08-21T13:24:07;137.88;;;124.93;;
13255;SDS011;37913;48.370;10.930;2022-08-21T13:26:36;139.90;;;126.40;;
13255;SDS011;37913;48.370;10.930;2022-08-21T13:29:06;137.82;;;125.13;;
13255;SDS011;37913;48.370;10.930;2022-08-21T13:31:36;143.65;;;130.02;;
13255;SDS011;37913;48.370;10.930;2022-08-21T13:34:09;138.23;;;125.97;;
13255;SDS011;37913;48.370;10.930;2022-08-21T13:36:37;136.57;;;124.15;;
13255;SDS011;37913;48.370;10.930;2022-08-21T13:39:08;142.35;;;129.30;;
13255;SDS011;37913;48.370;10.930;2022-08-21T13:41:38;137.60;;;125.28;;
13255;SDS011;37913;48.370;10.930;2022-08-21T13:44:13;138.88;;;126.88;;
13255;SDS011;37913;48.370;10.930;2022-08-21T13:46:42;135.30;;;123.28;;
13255;SDS011;37913;48.370;10.930;2022-08-21T13:49:12;136.43;;;124.38;;
13255;SDS011;37913;48.370;10.930;2022-08-21T13:51:42;135.38;;;123.60;;
13255;SDS011;37913;48.370;10.930;2022-08-21T13:54:15;140.35;;;127.63;;
13255;SDS011;37913;48.370;10.930;2022-08-21T13:56:48;135.68;;;123.72;;
13255;SDS011;37913;48.370;10.930;2022-08-21T13:59:23;137.30;;;124.60;;
13255;SDS011;37913;48.370;10.930;2022-08-21T14:01:52;133.85;;;121.93;;
13255;SDS011;37913;48.370;10.930;2022-08-21T14:04:26;136.57;;;123.18;;
13255;SDS011;37913;48.370;10.930;2022-08-21T14:06:58;130.50;;;118.13;;
13255;SDS011;37913;48.370;10.930;2022-08-21T14:09:26;128.75;;;115.55;;
13255;SDS011;37913;48.370;10.930;2022-08-21T14:11:57;119.80;;;107.20;;
13255;SDS011;37913;48.370;10.930;2022-08-21T14:14:26;114.13;;;102.13;;
13255;SDS011;37913;48.370;10.930;2022-08-21T14:16:58;111.90;;;99.68;;
13255;SDS011;37913;48.370;10.930;2022-08-21T14:19:34;113.47;;;96.88;;
13255;SDS011;37913;48.370;10.930;2022-08-21T14:25:05;109.95;;;91.18;;
13255;SDS011;37913;48.370;10.930;2022-08-21T14:27:34;113.10;;;87.18;;
13255;SDS011;37913;48.370;10.930;2022-08-21T14:30:04;107.63;;;83.53;;
13255;SDS011;37913;48.370;10.930;2022-08-21T14:32:38;112.85;;;82.63;;
13255;SDS011;37913;48.370;10.930;2022-08-21T14:35:08;110.53;;;83.00;;
13255;SDS011;37913;48.370;10.930;2022-08-21T14:37:36;113.70;;;78.40;;
13255;SDS011;37913;48.370;10.930;2022-08-21T14:40:04;95.00;;;73.15;;
13255;SDS011;37913;48.370;10.930;2022-08-21T14:42:31;103.95;;;73.32;;